createdAt,value
2022-10-30T00:02:43.015Z,18.00
2022-10-30T00:23:09.140Z,17.80
2022-10-30T00:43:38.742Z,17.70
2022-10-30T00:53:43.461Z,17.60
2022-10-30T01:03:49.347Z,17.30
2022-10-30T01:13:55.137Z,17.30
2022-10-30T01:24:15.862Z,17.20
2022-10-30T01:34:21.819Z,17.00
2022-10-30T01:44:33.394Z,17.00
2022-10-30T02:05:10.575Z,16.60
2022-10-30T02:25:37.365Z,16.50
2022-10-30T02:35:43.757Z,16.50
2022-10-30T08:18:35.215Z,19.30
2022-10-30T08:28:39.783Z,19.50
2022-10-30T08:38:49.497Z,19.60
2022-10-30T08:48:55.207Z,19.60
2022-10-30T08:59:00.637Z,19.70
2022-10-30T09:09:04.272Z,20.10
2022-10-30T09:19:12.483Z,20.50
2022-10-30T09:29:18.729Z,20.80
2022-10-30T09:39:25.618Z,22.00
2022-10-30T09:49:46.711Z,21.80
2022-10-30T10:00:04.435Z,21.90
2022-10-30T10:10:14.732Z,21.60
2022-10-30T10:20:32.288Z,22.20
2022-10-30T10:30:48.247Z,22.70
2022-10-30T10:41:02.339Z,22.50
2022-10-30T11:01:39.756Z,22.40
2022-10-30T11:11:46.909Z,22.80
2022-10-30T11:42:48.017Z,25.10
2022-10-30T11:52:53.895Z,24.00
2022-10-30T12:23:54.153Z,25.50
2022-10-30T12:34:08.921Z,24.30
2022-10-30T12:44:20.051Z,23.60
2022-10-30T12:54:32.395Z,23.20
2022-10-30T13:04:41.174Z,23.60
2022-10-30T13:14:49.055Z,24.10
2022-10-30T13:25:04.013Z,24.50
2022-10-30T13:46:03.589Z,25.10
2022-10-30T13:56:08.514Z,26.40
2022-10-30T14:06:23.359Z,26.10
2022-10-30T14:16:41.551Z,26.90
2022-10-30T14:26:56.687Z,27.10
2022-10-30T14:37:00.636Z,26.80
2022-10-30T14:58:23.692Z,26.00
2022-10-30T15:08:53.263Z,24.80
2022-10-30T15:19:03.226Z,24.30
2022-10-30T15:29:09.150Z,23.60
2022-10-30T15:49:40.238Z,23.00
2022-10-30T15:59:53.375Z,22.80
2022-10-30T16:20:21.966Z,22.20
2022-10-30T16:30:29.618Z,22.00
2022-10-30T16:40:34.830Z,21.60
2022-10-30T16:50:39.754Z,21.10
2022-10-30T17:00:52.407Z,20.80
2022-10-30T17:10:59.544Z,20.40
2022-10-30T17:21:09.635Z,20.10
2022-10-30T17:31:44.330Z,19.50
2022-10-30T17:41:49.530Z,19.30
2022-10-30T17:51:53.666Z,19.20
2022-10-30T18:01:59.466Z,19.10
2022-10-30T18:12:03.203Z,18.90
2022-10-30T18:22:08.362Z,18.70
2022-10-30T18:32:12.560Z,18.70
2022-10-30T18:42:17.858Z,18.60
2022-10-30T18:52:21.622Z,18.60
2022-10-30T19:02:27.104Z,18.40
2022-10-30T19:33:14.617Z,18.20
2022-10-30T19:43:19.795Z,18.30
2022-10-30T19:53:23.419Z,18.20
2022-10-30T20:03:28.819Z,18.20
2022-10-30T20:13:33.589Z,18.30
2022-10-30T20:23:39.191Z,18.30
2022-10-30T20:33:42.991Z,18.00
2022-10-30T20:43:50.183Z,18.00
2022-10-30T21:04:18.645Z,18.00
2022-10-30T21:14:22.394Z,17.90
2022-10-30T21:45:14.149Z,18.10
2022-10-30T21:55:18.005Z,18.00
2022-10-30T22:15:44.228Z,17.90
2022-10-30T22:25:57.055Z,17.90
2022-10-30T22:36:08.592Z,17.90
2022-10-30T22:46:14.829Z,18.00
2022-10-30T22:56:20.116Z,18.10
2022-10-30T23:06:25.788Z,18.10
2022-10-30T23:16:29.859Z,18.10
2022-10-30T23:26:36.418Z,18.10
2022-10-30T23:36:43.041Z,18.10
2022-10-30T23:46:49.126Z,18.10
2022-10-30T23:56:52.897Z,18.20
